Check out our new BloomSky Weather System.

Active alerts

Houston, TX
  Details for Houston, TX Dense Fog Advisory


Thunder radar  blitzortung!


Rain radar more information rain snow radar


Visit our other weather sites:

Template documentation
and downloads

And another site



Weather Underground History page Text

Daily Summary for August 17, 2017 Units:  English    Metric   Both
« Previous Day
Next Day »
Daily Weekly Monthly Yearly Custom
  High: Low: Average:
Temperature: 99.5 °F 81.9 °F 89.3 °F
Dew Point: 81.3 °F 72.5 °F 77.4 °F
Humidity: 91 % 44 % 70 %
Wind Speed: 12.0 mph 0.0 mph 4 mph
Wind Gust: 16.0 mph - -
Wind:- - South
Pressure: 30.04 in 29.91 in -
Precipitation: 0.00 in    
Historical Graphs
 
 
Tabular Data for August 17, 2017
Time Temperature Dew Point Pressure Wind Wind Speed Wind Gust Humidity Rainfall Rate (Hourly)
00:03 85.1 °F 80.1 °F 29.95 in SE 8.0 mph 12.0 mph 85 % 0.00 in
00:08 84.9 °F 79.9 °F 29.95 in SE 6.0 mph 11.0 mph 85 % 0.00 in
00:13 84.9 °F 79.9 °F 29.96 in ESE 9.0 mph 11.0 mph 85 % 0.00 in
00:18 84.9 °F 79.9 °F 29.96 in South 4.0 mph 11.0 mph 85 % 0.00 in
00:23 84.9 °F 79.9 °F 29.96 in SE 4.0 mph 11.0 mph 85 % 0.00 in
00:28 84.7 °F 79.7 °F 29.96 in SE 5.0 mph 11.0 mph 85 % 0.00 in
00:33 84.7 °F 80.1 °F 29.96 in SSW 7.0 mph 10.0 mph 86 % 0.00 in
00:38 84.7 °F 80.1 °F 29.96 in SSE 4.0 mph 9.0 mph 86 % 0.00 in
00:43 84.6 °F 79.9 °F 29.96 in SE 4.0 mph 9.0 mph 86 % 0.00 in
00:48 84.6 °F 79.9 °F 29.96 in South 3.0 mph 10.0 mph 86 % 0.00 in
00:53 84.6 °F 79.9 °F 29.96 in SSE 4.0 mph 10.0 mph 86 % 0.00 in
00:58 84.6 °F 79.9 °F 29.96 in South 5.0 mph 10.0 mph 86 % 0.00 in
01:03 84.6 °F 79.9 °F 29.96 in SSE 7.0 mph 8.0 mph 86 % 0.00 in
01:08 84.6 °F 79.9 °F 29.96 in SSE 3.0 mph 10.0 mph 86 % 0.00 in
01:13 84.6 °F 80.2 °F 29.96 in South 2.0 mph 10.0 mph 87 % 0.00 in
01:18 84.4 °F 80.1 °F 29.96 in SE 4.0 mph 10.0 mph 87 % 0.00 in
01:23 84.4 °F 80.1 °F 29.96 in SSE 5.0 mph 9.0 mph 87 % 0.00 in
01:28 84.4 °F 80.1 °F 29.97 in SSE 3.0 mph 9.0 mph 87 % 0.00 in
01:33 84.2 °F 79.9 °F 29.97 in South 8.0 mph 11.0 mph 87 % 0.00 in
01:34 84.2 °F 79.9 °F 29.97 in SSE 5.0 mph 11.0 mph 87 % 0.00 in
01:39 84.2 °F 79.9 °F 29.96 in SE 5.0 mph 12.0 mph 87 % 0.00 in
01:44 84.0 °F 79.7 °F 29.96 in SSW 4.0 mph 12.0 mph 87 % 0.00 in
01:49 84.0 °F 80.1 °F 29.96 in South 2.0 mph 12.0 mph 88 % 0.00 in
01:54 84.0 °F 80.1 °F 29.96 in South 5.0 mph 10.0 mph 88 % 0.00 in
01:59 84.0 °F 80.1 °F 29.96 in South 3.0 mph 10.0 mph 88 % 0.00 in
02:04 83.8 °F 79.9 °F 29.96 in SSE 5.0 mph 10.0 mph 88 % 0.00 in
02:09 83.8 °F 79.9 °F 29.96 in SSW 6.0 mph 10.0 mph 88 % 0.00 in
02:14 83.8 °F 79.9 °F 29.96 in SE 5.0 mph 8.0 mph 88 % 0.00 in
02:19 83.8 °F 79.9 °F 29.96 in SSE 3.0 mph 12.0 mph 88 % 0.00 in
02:24 83.8 °F 79.9 °F 29.96 in SSW 1.0 mph 12.0 mph 88 % 0.00 in
02:29 83.8 °F 79.9 °F 29.96 in South 2.0 mph 12.0 mph 88 % 0.00 in
02:34 83.8 °F 80.2 °F 29.96 in SSE 3.0 mph 11.0 mph 89 % 0.00 in
02:39 83.8 °F 80.2 °F 29.96 in SSE 5.0 mph 8.0 mph 89 % 0.00 in
02:44 83.8 °F 80.2 °F 29.96 in SSE 7.0 mph 10.0 mph 89 % 0.00 in
02:49 83.8 °F 80.2 °F 29.96 in SE 5.0 mph 10.0 mph 89 % 0.00 in
02:54 83.8 °F 80.2 °F 29.96 in SSE 5.0 mph 10.0 mph 89 % 0.00 in
02:59 83.8 °F 80.2 °F 29.96 in South 3.0 mph 9.0 mph 89 % 0.00 in
03:04 83.8 °F 80.2 °F 29.96 in East 5.0 mph 11.0 mph 89 % 0.00 in
03:09 83.8 °F 80.2 °F 29.96 in SSE 9.0 mph 11.0 mph 89 % 0.00 in
03:14 83.8 °F 80.2 °F 29.97 in SE 4.0 mph 11.0 mph 89 % 0.00 in
03:19 83.8 °F 80.2 °F 29.97 in SSW 6.0 mph 10.0 mph 89 % 0.00 in
03:24 83.8 °F 80.2 °F 29.97 in SSE 6.0 mph 11.0 mph 89 % 0.00 in
03:29 83.8 °F 80.2 °F 29.97 in SSW 5.0 mph 11.0 mph 89 % 0.00 in
03:34 83.8 °F 80.2 °F 29.98 in SE 10.0 mph 11.0 mph 89 % 0.00 in
03:35 83.8 °F 80.2 °F 29.98 in ESE 8.0 mph 11.0 mph 89 % 0.00 in
03:40 83.8 °F 80.2 °F 29.97 in SSE 6.0 mph 12.0 mph 89 % 0.00 in
03:45 83.8 °F 80.2 °F 29.97 in South 7.0 mph 12.0 mph 89 % 0.00 in
03:58 83.8 °F 80.2 °F 29.98 in SSE 4.0 mph 12.0 mph 89 % 0.00 in
04:03 83.8 °F 80.2 °F 29.98 in SSE 5.0 mph 9.0 mph 89 % 0.00 in
04:08 83.8 °F 80.2 °F 29.97 in South 6.0 mph 9.0 mph 89 % 0.00 in
04:13 83.7 °F 80.1 °F 29.97 in SE 2.0 mph 9.0 mph 89 % 0.00 in
04:18 83.7 °F 80.1 °F 29.97 in South 5.0 mph 9.0 mph 89 % 0.00 in
04:23 83.7 °F 80.1 °F 29.97 in SSE 6.0 mph 9.0 mph 89 % 0.00 in
04:28 83.5 °F 79.9 °F 29.97 in SSW 6.0 mph 10.0 mph 89 % 0.00 in
04:33 83.5 °F 79.9 °F 29.97 in South 6.0 mph 10.0 mph 89 % 0.00 in
04:38 83.5 °F 79.9 °F 29.97 in South 5.0 mph 10.0 mph 89 % 0.00 in
04:43 83.3 °F 79.7 °F 29.97 in ESE 4.0 mph 10.0 mph 89 % 0.00 in
04:48 83.3 °F 80.1 °F 29.97 in SSE 4.0 mph 8.0 mph 90 % 0.00 in
04:53 83.1 °F 79.9 °F 29.97 in SE 3.0 mph 8.0 mph 90 % 0.00 in
04:58 83.1 °F 79.9 °F 29.97 in SSW 3.0 mph 8.0 mph 90 % 0.00 in
05:03 82.9 °F 79.7 °F 29.97 in South 5.0 mph 8.0 mph 90 % 0.00 in
05:08 82.9 °F 79.7 °F 29.97 in South 3.0 mph 8.0 mph 90 % 0.00 in
05:13 82.9 °F 79.7 °F 29.98 in SSE 3.0 mph 7.0 mph 90 % 0.00 in
05:18 82.9 °F 79.7 °F 29.98 in South 3.0 mph 7.0 mph 90 % 0.00 in
05:23 82.9 °F 79.7 °F 29.98 in SSE 2.0 mph 7.0 mph 90 % 0.00 in
05:28 82.8 °F 79.5 °F 29.98 in South 4.0 mph 8.0 mph 90 % 0.00 in
05:33 82.8 °F 79.5 °F 29.98 in SSE 1.0 mph 8.0 mph 90 % 0.00 in
05:38 82.8 °F 79.5 °F 29.98 in Calm   8.0 mph 90 % 0.00 in
05:43 82.6 °F 79.3 °F 29.98 in South 1.0 mph 6.0 mph 90 % 0.00 in
05:48 82.6 °F 79.3 °F 29.99 in South 3.0 mph 5.0 mph 90 % 0.00 in
05:53 82.6 °F 79.3 °F 29.99 in South 2.0 mph 5.0 mph 90 % 0.00 in
06:58 82.0 °F 78.8 °F 29.99 in South 2.0 mph 6.0 mph 90 % 0.00 in
07:03 82.0 °F 78.8 °F 30.00 in SSE 2.0 mph 5.0 mph 90 % 0.00 in
07:05 81.9 °F 78.6 °F 30.00 in South 2.0 mph 4.0 mph 90 % 0.00 in
07:10 81.9 °F 79.0 °F 30.00 in SSE 1.0 mph 4.0 mph 91 % 0.00 in
07:15 81.9 °F 79.0 °F 30.00 in SSW 2.0 mph 5.0 mph 91 % 0.00 in
07:20 81.9 °F 79.0 °F 30.00 in SSW 2.0 mph 5.0 mph 91 % 0.00 in
07:25 81.9 °F 79.0 °F 30.01 in South 1.0 mph 5.0 mph 91 % 0.00 in
07:27 81.9 °F 79.0 °F 30.00 in SSE 2.0 mph 5.0 mph 91 % 0.00 in
07:32 81.9 °F 79.0 °F 30.01 in SSE 2.0 mph 4.0 mph 91 % 0.00 in
07:37 82.0 °F 79.2 °F 30.01 in South 4.0 mph 4.0 mph 91 % 0.00 in
07:42 82.4 °F 79.5 °F 30.00 in SSW 2.0 mph 6.0 mph 91 % 0.00 in
07:47 82.8 °F 79.5 °F 30.01 in SSE 2.0 mph 6.0 mph 90 % 0.00 in
07:52 82.9 °F 79.3 °F 30.01 in SSW 2.0 mph 6.0 mph 89 % 0.00 in
07:57 83.5 °F 79.9 °F 30.01 in SSE 3.0 mph 5.0 mph 89 % 0.00 in
08:02 83.8 °F 79.9 °F 30.01 in SSE 5.0 mph 6.0 mph 88 % 0.00 in
08:07 84.0 °F 80.1 °F 30.01 in South 5.0 mph 6.0 mph 88 % 0.00 in
08:12 84.6 °F 80.2 °F 30.01 in SSE 5.0 mph 8.0 mph 87 % 0.00 in
08:17 84.7 °F 80.1 °F 30.01 in SSW 2.0 mph 8.0 mph 86 % 0.00 in
08:22 85.1 °F 80.1 °F 30.01 in SE 4.0 mph 8.0 mph 85 % 0.00 in
08:27 85.5 °F 80.4 °F 30.00 in SW 6.0 mph 8.0 mph 85 % 0.00 in
08:32 85.6 °F 80.6 °F 30.01 in SSE 8.0 mph 8.0 mph 85 % 0.00 in
08:37 85.8 °F 80.4 °F 30.01 in SW 2.0 mph 12.0 mph 84 % 0.00 in
08:42 86.2 °F 80.8 °F 30.01 in SE 4.0 mph 12.0 mph 84 % 0.00 in
08:47 86.4 °F 80.6 °F 30.01 in South 4.0 mph 12.0 mph 83 % 0.00 in
08:52 86.7 °F 81.3 °F 30.01 in South 6.0 mph 9.0 mph 84 % 0.00 in
08:57 86.9 °F 80.8 °F 30.02 in SSE 2.0 mph 9.0 mph 82 % 0.00 in
09:02 87.1 °F 80.6 °F 30.02 in SSE 5.0 mph 9.0 mph 81 % 0.00 in
09:03 87.1 °F 80.6 °F 30.02 in SE 3.0 mph 9.0 mph 81 % 0.00 in
09:08 87.1 °F 80.6 °F 30.02 in SSE 3.0 mph 9.0 mph 81 % 0.00 in
09:13 87.3 °F 80.2 °F 30.02 in West 2.0 mph 9.0 mph 80 % 0.00 in
09:18 87.3 °F 80.2 °F 30.02 in South 5.0 mph 9.0 mph 80 % 0.00 in
09:23 87.8 °F 80.8 °F 30.03 in SSW 4.0 mph 9.0 mph 80 % 0.00 in
09:28 88.0 °F 79.9 °F 30.03 in SSE 5.0 mph 9.0 mph 77 % 0.00 in
09:33 87.6 °F 79.9 °F 30.04 in SSE 4.0 mph 10.0 mph 78 % 0.00 in
09:38 87.6 °F 79.9 °F 30.04 in SSE 4.0 mph 10.0 mph 78 % 0.00 in
09:43 87.6 °F 79.5 °F 30.04 in SSW 3.0 mph 10.0 mph 77 % 0.00 in
09:48 88.0 °F 79.5 °F 30.04 in ESE 3.0 mph 11.0 mph 76 % 0.00 in
09:53 88.2 °F 79.2 °F 30.04 in SSW 4.0 mph 11.0 mph 75 % 0.00 in
09:58 88.2 °F 79.2 °F 30.04 in West 2.0 mph 11.0 mph 75 % 0.00 in
10:03 88.5 °F 79.5 °F 30.04 in Calm   9.0 mph 75 % 0.00 in
10:08 88.9 °F 79.2 °F 30.04 in South 5.0 mph 10.0 mph 73 % 0.00 in
10:13 88.3 °F 79.0 °F 30.04 in South 7.0 mph 10.0 mph 74 % 0.00 in
10:18 88.3 °F 78.1 °F 30.04 in South 8.0 mph 10.0 mph 72 % 0.00 in
10:23 88.9 °F 79.2 °F 30.04 in SE 6.0 mph 10.0 mph 73 % 0.00 in
10:28 89.4 °F 79.2 °F 30.04 in South 3.0 mph 11.0 mph 72 % 0.00 in
10:33 90.0 °F 79.3 °F 30.04 in SSE 5.0 mph 11.0 mph 71 % 0.00 in
10:38 90.7 °F 78.3 °F 30.04 in SSW 2.0 mph 11.0 mph 67 % 0.00 in
10:43 90.9 °F 78.8 °F 30.04 in South 4.0 mph 11.0 mph 68 % 0.00 in
10:48 90.9 °F 78.8 °F 30.04 in South 2.0 mph 11.0 mph 68 % 0.00 in
10:53 90.7 °F 78.6 °F 30.04 in SSE 1.0 mph 10.0 mph 68 % 0.00 in
10:58 91.2 °F 78.8 °F 30.04 in South 7.0 mph 10.0 mph 67 % 0.00 in
11:03 91.6 °F 78.6 °F 30.04 in SSW 1.0 mph 8.0 mph 66 % 0.00 in
11:08 91.8 °F 78.8 °F 30.04 in SW 4.0 mph 10.0 mph 66 % 0.00 in
11:13 91.8 °F 77.9 °F 30.04 in SSE 6.0 mph 10.0 mph 64 % 0.00 in
11:18 91.6 °F 76.3 °F 30.04 in SSE 8.0 mph 13.0 mph 61 % 0.00 in
11:23 91.6 °F 76.6 °F 30.04 in SSE 12.0 mph 15.0 mph 62 % 0.00 in
11:28 91.9 °F 78.4 °F 30.04 in SSE 5.0 mph 15.0 mph 65 % 0.00 in
11:33 92.1 °F 78.3 °F 30.04 in South 7.0 mph 15.0 mph 64 % 0.00 in
11:38 92.7 °F 77.7 °F 30.03 in SE 3.0 mph 16.0 mph 62 % 0.00 in
11:43 92.8 °F 77.9 °F 30.03 in South 7.0 mph 16.0 mph 62 % 0.00 in
11:48 93.0 °F 78.1 °F 30.03 in ESE 5.0 mph 16.0 mph 62 % 0.00 in
11:53 93.0 °F 77.0 °F 30.03 in SE 10.0 mph 13.0 mph 60 % 0.00 in
11:58 93.0 °F 78.6 °F 30.04 in SSE 5.0 mph 13.0 mph 63 % 0.00 in
12:03 92.7 °F 77.2 °F 30.03 in SSW 2.0 mph 13.0 mph 61 % 0.00 in
12:08 92.8 °F 77.9 °F 30.03 in WSW 2.0 mph 13.0 mph 62 % 0.00 in
12:13 92.8 °F 76.8 °F 30.03 in SE 6.0 mph 12.0 mph 60 % 0.00 in
12:18 93.0 °F 77.5 °F 30.03 in SSE 3.0 mph 12.0 mph 61 % 0.00 in
12:23 93.4 °F 78.4 °F 30.03 in SSW 4.0 mph 12.0 mph 62 % 0.00 in
12:28 93.7 °F 77.2 °F 30.03 in SSW 4.0 mph 12.0 mph 59 % 0.00 in
12:34 93.9 °F 78.4 °F 30.03 in South 5.0 mph 11.0 mph 61 % 0.00 in
12:38 94.3 °F 77.7 °F 30.02 in South 4.0 mph 11.0 mph 59 % 0.00 in
12:43 94.3 °F 78.3 °F 30.02 in South 3.0 mph 11.0 mph 60 % 0.00 in
12:48 94.8 °F 77.2 °F 30.02 in SSW 4.0 mph 10.0 mph 57 % 0.00 in
12:54 95.2 °F 78.6 °F 30.02 in WSW 4.0 mph 10.0 mph 59 % 0.00 in
12:59 96.1 °F 79.0 °F 30.02 in SSW 1.0 mph 10.0 mph 58 % 0.00 in
13:04 96.3 °F 78.1 °F 30.02 in SE 2.0 mph 8.0 mph 56 % 0.00 in
13:08 96.3 °F 77.5 °F 30.02 in SW 2.0 mph 7.0 mph 55 % 0.00 in
13:14 95.9 °F 77.2 °F 30.02 in SSE 8.0 mph 12.0 mph 55 % 0.00 in
13:19 95.2 °F 77.0 °F 30.02 in South 4.0 mph 15.0 mph 56 % 0.00 in
13:24 95.2 °F 77.0 °F 30.02 in South 5.0 mph 15.0 mph 56 % 0.00 in
13:29 95.5 °F 76.3 °F 30.02 in South 3.0 mph 15.0 mph 54 % 0.00 in
13:34 95.4 °F 76.6 °F 30.01 in SSW 1.0 mph 9.0 mph 55 % 0.00 in
13:39 95.7 °F 77.5 °F 30.01 in SE 4.0 mph 9.0 mph 56 % 0.00 in
13:44 95.7 °F 76.5 °F 30.01 in SE 8.0 mph 9.0 mph 54 % 0.00 in
13:49 95.5 °F 75.7 °F 30.01 in SSE 4.0 mph 10.0 mph 53 % 0.00 in
13:54 96.1 °F 77.4 °F 30.01 in NNE 1.0 mph 11.0 mph 55 % 0.00 in
13:59 96.6 °F 75.6 °F 30.01 in SSW 7.0 mph 11.0 mph 51 % 0.00 in
14:04 96.8 °F 75.7 °F 30.01 in SE 5.0 mph 11.0 mph 51 % 0.00 in
14:09 97.0 °F 75.9 °F 30.01 in SSW 2.0 mph 11.0 mph 51 % 0.00 in
14:14 97.3 °F 75.6 °F 30.01 in SE 3.0 mph 11.0 mph 50 % 0.00 in
14:19 97.5 °F 77.0 °F 30.01 in NW 3.0 mph 11.0 mph 52 % 0.00 in
14:24 97.0 °F 77.5 °F 30.01 in SSE 2.0 mph 7.0 mph 54 % 0.00 in
14:29 97.2 °F 76.6 °F 30.00 in South 7.0 mph 7.0 mph 52 % 0.00 in
14:34 97.2 °F 74.8 °F 30.00 in South 4.0 mph 9.0 mph 49 % 0.00 in
14:39 97.2 °F 74.1 °F 30.00 in ENE 8.0 mph 9.0 mph 48 % 0.00 in
14:44 97.0 °F 75.2 °F 29.99 in SE 8.0 mph 9.0 mph 50 % 0.00 in
14:49 97.0 °F 75.9 °F 29.99 in SW 3.0 mph 11.0 mph 51 % 0.00 in
14:54 97.7 °F 74.7 °F 29.99 in SSE 6.0 mph 11.0 mph 48 % 0.00 in
14:59 97.9 °F 75.4 °F 29.99 in WNW 3.0 mph 11.0 mph 49 % 0.00 in
15:04 98.1 °F 75.6 °F 29.98 in SSE 5.0 mph 9.0 mph 49 % 0.00 in
15:09 97.9 °F 74.3 °F 29.98 in ESE 4.0 mph 9.0 mph 47 % 0.00 in
15:14 97.9 °F 74.3 °F 29.98 in South 5.0 mph 9.0 mph 47 % 0.00 in
15:19 98.1 °F 74.3 °F 29.97 in SSW 3.0 mph 11.0 mph 47 % 0.00 in
15:24 98.1 °F 73.8 °F 29.97 in SSW 8.0 mph 11.0 mph 46 % 0.00 in
15:29 97.9 °F 73.6 °F 29.97 in ESE 3.0 mph 12.0 mph 46 % 0.00 in
15:34 98.2 °F 74.5 °F 29.96 in SSE 2.0 mph 12.0 mph 47 % 0.00 in
15:39 98.1 °F 75.6 °F 29.96 in South 8.0 mph 12.0 mph 49 % 0.00 in
15:44 97.9 °F 74.8 °F 29.96 in SE 2.0 mph 11.0 mph 48 % 0.00 in
15:49 98.1 °F 75.0 °F 29.96 in ESE 2.0 mph 11.0 mph 48 % 0.00 in
15:54 98.1 °F 73.0 °F 29.96 in SE 3.0 mph 11.0 mph 45 % 0.00 in
15:59 98.2 °F 73.2 °F 29.96 in South 5.0 mph 9.0 mph 45 % 0.00 in
16:04 98.2 °F 75.2 °F 29.96 in WSW 2.0 mph 10.0 mph 48 % 0.00 in
16:09 98.8 °F 73.8 °F 29.95 in South 2.0 mph 10.0 mph 45 % 0.00 in
16:14 99.1 °F 73.4 °F 29.95 in Calm   10.0 mph 44 % 0.00 in
16:19 99.5 °F 75.0 °F 29.95 in SSE 1.0 mph 6.0 mph 46 % 0.00 in
16:24 99.0 °F 74.5 °F 29.95 in South 4.0 mph 6.0 mph 46 % 0.00 in
16:29 98.4 °F 74.7 °F 29.94 in SE 2.0 mph 9.0 mph 47 % 0.00 in
16:34 98.2 °F 73.9 °F 29.94 in SE 5.0 mph 9.0 mph 46 % 0.00 in
16:39 98.2 °F 72.5 °F 29.94 in SE 5.0 mph 9.0 mph 44 % 0.00 in
16:44 98.1 °F 73.8 °F 29.94 in SSE 3.0 mph 9.0 mph 46 % 0.00 in
16:49 97.7 °F 73.4 °F 29.93 in ESE 8.0 mph 11.0 mph 46 % 0.00 in
16:54 97.7 °F 73.4 °F 29.93 in SSW 9.0 mph 11.0 mph 46 % 0.00 in
17:00 97.9 °F 73.6 °F 29.93 in SSE 4.0 mph 11.0 mph 46 % 0.00 in
17:05 97.9 °F 74.3 °F 29.92 in South 3.0 mph 9.0 mph 47 % 0.00 in
17:10 97.9 °F 73.6 °F 29.92 in SSE 5.0 mph 9.0 mph 46 % 0.00 in
17:15 97.5 °F 73.9 °F 29.92 in SE 3.0 mph 9.0 mph 47 % 0.00 in
17:20 97.3 °F 73.8 °F 29.92 in South 7.0 mph 10.0 mph 47 % 0.00 in
17:25 97.2 °F 74.1 °F 29.92 in South 4.0 mph 11.0 mph 48 % 0.00 in
17:30 97.3 °F 74.3 °F 29.91 in SE 4.0 mph 11.0 mph 48 % 0.00 in
17:35 97.3 °F 73.8 °F 29.91 in SE 6.0 mph 11.0 mph 47 % 0.00 in
17:40 97.3 °F 73.8 °F 29.91 in East 11.0 mph 11.0 mph 47 % 0.00 in
17:45 97.5 °F 75.7 °F 29.91 in South 6.0 mph 11.0 mph 50 % 0.00 in
17:50 97.2 °F 74.1 °F 29.91 in ESE 4.0 mph 11.0 mph 48 % 0.00 in
17:55 97.2 °F 75.4 °F 29.92 in SSE 6.0 mph 11.0 mph 50 % 0.00 in
18:00 97.0 °F 74.7 °F 29.91 in SE 6.0 mph 11.0 mph 49 % 0.00 in
18:05 96.6 °F 74.8 °F 29.92 in SE 6.0 mph 11.0 mph 50 % 0.00 in
18:10 95.9 °F 75.4 °F 29.91 in SSE 6.0 mph 11.0 mph 52 % 0.00 in
18:15 95.2 °F 74.8 °F 29.91 in South 4.0 mph 11.0 mph 52 % 0.00 in
18:20 94.8 °F 75.0 °F 29.91 in SE 3.0 mph 11.0 mph 53 % 0.00 in
18:25 94.6 °F 75.4 °F 29.91 in SE 6.0 mph 10.0 mph 54 % 0.00 in
18:30 94.8 °F 75.6 °F 29.91 in SSE 5.0 mph 10.0 mph 54 % 0.00 in
18:35 94.8 °F 75.0 °F 29.91 in SE 9.0 mph 11.0 mph 53 % 0.00 in
18:40 94.6 °F 75.4 °F 29.91 in SSE 4.0 mph 11.0 mph 54 % 0.00 in
18:45 94.6 °F 75.9 °F 29.91 in SE 5.0 mph 11.0 mph 55 % 0.00 in
18:50 94.5 °F 76.3 °F 29.91 in SSE 3.0 mph 11.0 mph 56 % 0.00 in
18:55 94.5 °F 75.2 °F 29.91 in SSE 6.0 mph 9.0 mph 54 % 0.00 in
19:00 94.1 °F 75.4 °F 29.91 in SSW 6.0 mph 8.0 mph 55 % 0.00 in
19:05 93.9 °F 75.2 °F 29.91 in South 5.0 mph 8.0 mph 55 % 0.00 in
19:10 93.7 °F 75.2 °F 29.91 in SSE 6.0 mph 13.0 mph 55 % 0.00 in
19:15 93.6 °F 75.0 °F 29.91 in SSE 4.0 mph 13.0 mph 55 % 0.00 in
19:20 93.2 °F 75.2 °F 29.92 in SSW 3.0 mph 13.0 mph 56 % 0.00 in
19:25 92.8 °F 74.8 °F 29.92 in SSW 3.0 mph 11.0 mph 56 % 0.00 in
19:30 92.5 °F 75.0 °F 29.92 in SSE 4.0 mph 9.0 mph 57 % 0.00 in
19:35 92.1 °F 74.7 °F 29.92 in SSW 4.0 mph 9.0 mph 57 % 0.00 in
19:40 91.9 °F 74.5 °F 29.93 in South 5.0 mph 9.0 mph 57 % 0.00 in
19:45 91.8 °F 74.8 °F 29.93 in SE 5.0 mph 10.0 mph 58 % 0.00 in
19:50 91.6 °F 74.7 °F 29.93 in SSW 2.0 mph 10.0 mph 58 % 0.00 in
19:55 91.2 °F 74.3 °F 29.94 in SSE 3.0 mph 10.0 mph 58 % 0.00 in
20:00 90.9 °F 74.5 °F 29.94 in South 4.0 mph 8.0 mph 59 % 0.00 in
20:05 90.7 °F 74.8 °F 29.94 in SSE 5.0 mph 9.0 mph 60 % 0.00 in
20:10 90.3 °F 74.5 °F 29.94 in SSE 5.0 mph 9.0 mph 60 % 0.00 in
20:15 90.1 °F 74.3 °F 29.94 in SSW 5.0 mph 9.0 mph 60 % 0.00 in
20:20 89.8 °F 74.5 °F 29.94 in SSE 2.0 mph 8.0 mph 61 % 0.00 in
20:25 89.6 °F 74.8 °F 29.94 in South 3.0 mph 8.0 mph 62 % 0.00 in
20:31 89.4 °F 74.7 °F 29.95 in SSE 3.0 mph 8.0 mph 62 % 0.00 in
20:36 89.2 °F 75.0 °F 29.95 in South 3.0 mph 7.0 mph 63 % 0.00 in
20:41 89.1 °F 75.2 °F 29.95 in SE 2.0 mph 6.0 mph 64 % 0.00 in
20:46 88.9 °F 75.2 °F 29.96 in SSE 1.0 mph 6.0 mph 64 % 0.00 in
20:51 88.5 °F 75.2 °F 29.96 in ESE 4.0 mph 5.0 mph 65 % 0.00 in
20:55 88.3 °F 75.6 °F 29.96 in South 2.0 mph 7.0 mph 66 % 0.00 in
21:00 88.2 °F 75.4 °F 29.96 in SSW 3.0 mph 7.0 mph 66 % 0.00 in
21:06 88.0 °F 75.6 °F 29.96 in SSE 1.0 mph 7.0 mph 67 % 0.00 in
21:11 87.8 °F 75.4 °F 29.96 in SSW 2.0 mph 4.0 mph 67 % 0.00 in
21:16 87.6 °F 75.4 °F 29.96 in SSE 2.0 mph 4.0 mph 67 % 0.00 in
21:21 87.4 °F 75.6 °F 29.97 in SSW 2.0 mph 6.0 mph 68 % 0.00 in
21:26 87.1 °F 75.2 °F 29.97 in South 3.0 mph 6.0 mph 68 % 0.00 in
21:31 87.1 °F 74.8 °F 29.97 in SSE 2.0 mph 7.0 mph 67 % 0.00 in
21:36 87.1 °F 74.8 °F 29.97 in SSW 2.0 mph 7.0 mph 67 % 0.00 in
21:41 87.1 °F 74.8 °F 29.98 in South 3.0 mph 7.0 mph 67 % 0.00 in
21:46 86.7 °F 74.5 °F 29.98 in South 3.0 mph 7.0 mph 67 % 0.00 in
21:51 86.5 °F 74.3 °F 29.98 in SSE 4.0 mph 7.0 mph 67 % 0.00 in
21:56 86.5 °F 74.7 °F 29.98 in South 3.0 mph 7.0 mph 68 % 0.00 in
22:01 86.4 °F 74.5 °F 29.98 in SSW 5.0 mph 7.0 mph 68 % 0.00 in
22:06 86.2 °F 74.3 °F 29.98 in SSE 5.0 mph 7.0 mph 68 % 0.00 in
22:11 86.4 °F 74.1 °F 29.98 in South 2.0 mph 7.0 mph 67 % 0.00 in
22:16 86.4 °F 74.1 °F 29.99 in SSW 3.0 mph 7.0 mph 67 % 0.00 in
22:21 86.2 °F 74.3 °F 29.99 in SSE 2.0 mph 7.0 mph 68 % 0.00 in
22:22 86.2 °F 74.3 °F 29.99 in SSE 1.0 mph 7.0 mph 68 % 0.00 in
22:26 86.2 °F 74.3 °F 29.99 in SSW 3.0 mph 6.0 mph 68 % 0.00 in
22:27 86.2 °F 74.3 °F 29.99 in South 3.0 mph 6.0 mph 68 % 0.00 in
22:32 85.8 °F 74.5 °F 29.99 in SE 1.0 mph 6.0 mph 69 % 0.00 in
22:37 85.6 °F 74.7 °F 29.99 in SSE 2.0 mph 7.0 mph 70 % 0.00 in
22:42 85.6 °F 74.7 °F 30.00 in South 3.0 mph 7.0 mph 70 % 0.00 in
22:47 85.5 °F 75.0 °F 30.00 in SSE 4.0 mph 7.0 mph 71 % 0.00 in
22:52 85.5 °F 75.0 °F 30.00 in South 2.0 mph 7.0 mph 71 % 0.00 in
22:57 85.3 °F 75.2 °F 30.00 in SSE 4.0 mph 7.0 mph 72 % 0.00 in
23:02 85.3 °F 75.2 °F 30.00 in SE 6.0 mph 8.0 mph 72 % 0.00 in
23:07 85.1 °F 75.4 °F 30.00 in SSE 3.0 mph 8.0 mph 73 % 0.00 in
23:12 84.9 °F 75.2 °F 30.00 in SSW 2.0 mph 8.0 mph 73 % 0.00 in
23:17 84.7 °F 75.6 °F 30.00 in SE 4.0 mph 7.0 mph 74 % 0.00 in
23:22 84.6 °F 75.7 °F 30.00 in South 1.0 mph 5.0 mph 75 % 0.00 in
23:27 84.6 °F 75.7 °F 30.01 in Calm   5.0 mph 75 % 0.00 in
23:32 84.2 °F 75.7 °F 30.01 in SSW 1.0 mph 5.0 mph 76 % 0.00 in
23:37 84.0 °F 75.6 °F 30.01 in SSE 2.0 mph 4.0 mph 76 % 0.00 in
23:42 84.0 °F 76.1 °F 30.01 in SSW 2.0 mph 4.0 mph 77 % 0.00 in
23:47 83.8 °F 75.9 °F 30.01 in SSE 2.0 mph 3.0 mph 77 % 0.00 in
23:52 83.7 °F 76.1 °F 30.01 in South 3.0 mph 3.0 mph 78 % 0.00 in
23:57 83.7 °F 76.1 °F 30.01 in SSE 1.0 mph 4.0 mph 78 % 0.00 in
Spring, Texas: Villages of Bridgestone
Compliments of Weather Underground - 2.75 mb

Script developed by  Jim McMurry - jmcmurry@mwt.net Adapted for the template by  Wim van der Kuil - Leuven-Template.eu

You find our weather info also at:

UK Metoffice

WeatherCloud

Weather Underground

Mid-South Weather Network

AWEKAS

Citizen Weather Observer Program (CWOP)

HAMweather, WeatherForYou, PWS Weather

Equipment we use:

Weather-station
Davis Vantage Vue

Weather-program
Meteohub

Weather-server
Debian 7.9 x86 (Guest)

Provider
DreamHost

Davis Vantage Vue

Meteohub

Debian 7.9 x86 (Guest)

DreamHost